Time;durP1;ratioP1;P1;durP2;ratioP2;P2;SDS_P1;SDS_P2;PMS_P1;PMS_P2;Temp;Humidity;BMP_temperature;BMP_pressure;BME280_temperature;BME280_humidity;BME280_pressure;Samples;Min_cycle;Max_cycle;Signal;HPM_P1;HPM_P2
2023/06/02 00:01:38;;;;;;;20.23;10.20;;;;;;;;;;5056268;28;20028;-64
2023/06/02 00:04:04;;;;;;;20.00;10.07;;;;;;;;;;5056542;28;20017;-62
2023/06/02 00:06:33;;;;;;;21.05;10.63;;;;;;;;;;5054650;28;20036;-64
2023/06/02 00:08:59;;;;;;;28.08;12.52;;;;;;;;;;5055864;28;20029;-63
2023/06/02 00:11:25;;;;;;;26.67;12.07;;;;;;;;;;5056250;28;20045;-62
2023/06/02 00:13:51;;;;;;;25.00;10.95;;;;;;;;;;5055501;28;20156;-62
2023/06/02 00:16:17;;;;;;;22.52;11.38;;;;;;;;;;5054308;28;20108;-63
2023/06/02 00:18:43;;;;;;;19.83;10.80;;;;;;;;;;5054781;28;20028;-62
2023/06/02 00:21:09;;;;;;;25.60;12.02;;;;;;;;;;5052596;28;20078;-63
2023/06/02 00:23:35;;;;;;;19.25;10.30;;;;;;;;;;5053998;28;20051;-62
2023/06/02 00:26:01;;;;;;;17.65;10.65;;;;;;;;;;5051886;28;20024;-62
2023/06/02 00:28:28;;;;;;;26.42;11.27;;;;;;;;;;5055104;28;20078;-63
2023/06/02 00:30:54;;;;;;;24.67;11.05;;;;;;;;;;5055517;28;20028;-63
2023/06/02 00:33:20;;;;;;;18.17;10.18;;;;;;;;;;5053499;28;20400;-63
2023/06/02 00:35:47;;;;;;;24.60;12.02;;;;;;;;;;5052992;28;20025;-63
2023/06/02 00:38:13;;;;;;;20.92;10.95;;;;;;;;;;5055162;28;20095;-62
2023/06/02 00:40:39;;;;;;;22.75;11.30;;;;;;;;;;5059101;22;20064;-60
2023/06/02 00:43:05;;;;;;;25.23;11.95;;;;;;;;;;5032155;28;20025;-58
2023/06/02 00:45:32;;;;;;;20.67;11.27;;;;;;;;;;5031112;28;20022;-59
2023/06/02 00:48:01;;;;;;;21.60;11.27;;;;;;;;;;5031884;28;20017;-58
2023/06/02 00:50:27;;;;;;;19.02;10.75;;;;;;;;;;5046806;28;20067;-57
2023/06/02 00:52:55;;;;;;;22.90;11.60;;;;;;;;;;5051779;28;20025;-59
2023/06/02 00:55:21;;;;;;;21.65;11.40;;;;;;;;;;5050943;28;20021;-55
2023/06/02 00:57:51;;;;;;;25.52;11.35;;;;;;;;;;5051834;28;20034;-58
2023/06/02 01:00:18;;;;;;;18.45;10.57;;;;;;;;;;5051835;28;20104;-61
2023/06/02 01:02:45;;;;;;;21.40;10.82;;;;;;;;;;5051718;28;20090;-60
2023/06/02 01:05:12;;;;;;;25.00;11.10;;;;;;;;;;5051118;28;20079;-61
2023/06/02 01:07:44;;;;;;;21.98;11.20;;;;;;;;;;5067119;28;20025;-60
2023/06/02 01:10:11;;;;;;;19.73;10.90;;;;;;;;;;5051470;28;20025;-60
2023/06/02 01:12:37;;;;;;;22.48;12.02;;;;;;;;;;5051690;28;20033;-59
2023/06/02 01:15:04;;;;;;;20.95;10.55;;;;;;;;;;5050714;28;20492;-60
2023/06/02 01:17:30;;;;;;;20.17;11.63;;;;;;;;;;5068403;28;20025;-59
2023/06/02 01:20:06;;;;;;;20.58;11.82;;;;;;;;;;5055619;28;20095;-60
2023/06/02 01:22:38;;;;;;;21.15;11.18;;;;;;;;;;5055741;28;20052;-58
2023/06/02 01:25:16;;;;;;;21.55;11.13;;;;;;;;;;5053022;28;20075;-59
2023/06/02 01:27:42;;;;;;;20.13;10.98;;;;;;;;;;5062624;28;20033;-56
2023/06/02 01:30:08;;;;;;;25.27;12.20;;;;;;;;;;5067909;28;20031;-59
2023/06/02 01:32:36;;;;;;;22.50;11.60;;;;;;;;;;5049328;28;20025;-58
2023/06/02 01:35:10;;;;;;;20.73;10.90;;;;;;;;;;5060060;28;20430;-59
2023/06/02 01:37:39;;;;;;;22.02;11.32;;;;;;;;;;5066796;28;20024;-58
2023/06/02 01:40:05;;;;;;;;;;;;;;;;;;5075361;28;20438;-58
2023/06/02 01:42:32;;;;;;;18.48;10.60;;;;;;;;;;5075310;28;19955;-59
2023/06/02 01:44:58;;;;;;;28.10;11.75;;;;;;;;;;5074378;28;20035;-56
2023/06/02 01:47:24;;;;;;;19.73;12.07;;;;;;;;;;5075114;28;20103;-58
2023/06/02 01:49:50;;;;;;;20.90;12.10;;;;;;;;;;5056965;28;20471;-59
2023/06/02 01:52:16;;;;;;;21.00;12.05;;;;;;;;;;5075007;28;20056;-60
2023/06/02 01:54:43;;;;;;;23.20;12.65;;;;;;;;;;5074320;28;20080;-57
2023/06/02 01:57:09;;;;;;;23.92;11.88;;;;;;;;;;5074904;28;20017;-57
2023/06/02 01:59:35;;;;;;;22.02;11.75;;;;;;;;;;5056593;28;20098;-55
2023/06/02 02:02:01;;;;;;;21.80;12.38;;;;;;;;;;5074745;28;20454;-58
2023/06/02 02:04:29;;;;;;;20.35;11.38;;;;;;;;;;5055933;28;20034;-58
2023/06/02 02:06:55;;;;;;;20.98;11.60;;;;;;;;;;5074692;28;20198;-54
2023/06/02 02:09:21;;;;;;;18.98;10.85;;;;;;;;;;5074591;28;20025;-56
2023/06/02 02:11:48;;;;;;;20.98;11.30;;;;;;;;;;5074666;28;20047;-58
2023/06/02 02:14:14;;;;;;;20.00;11.15;;;;;;;;;;5073802;28;20027;-59
2023/06/02 02:16:44;;;;;;;20.98;11.63;;;;;;;;;;5074747;28;20013;-55
2023/06/02 02:19:12;;;;;;;22.45;12.23;;;;;;;;;;5074469;28;20020;-58
2023/06/02 02:21:39;;;;;;;20.88;11.13;;;;;;;;;;5074628;28;20035;-57
2023/06/02 02:24:05;;;;;;;23.63;11.23;;;;;;;;;;5073822;28;20480;-57
2023/06/02 02:26:32;;;;;;;21.27;11.50;;;;;;;;;;5074189;28;20111;-59
2023/06/02 02:28:58;;;;;;;24.67;11.18;;;;;;;;;;5073687;28;20041;-58
2023/06/02 02:31:24;;;;;;;23.42;11.20;;;;;;;;;;5056138;28;20654;-59
2023/06/02 02:33:50;;;;;;;21.83;11.60;;;;;;;;;;5074036;28;20104;-55
2023/06/02 02:36:17;;;;;;;20.48;11.90;;;;;;;;;;5073829;28;20020;-58
2023/06/02 02:38:43;;;;;;;24.77;11.02;;;;;;;;;;5056087;28;20029;-58
2023/06/02 02:41:09;;;;;;;21.20;10.90;;;;;;;;;;5074159;28;20024;-56
2023/06/02 02:43:35;;;;;;;27.02;11.40;;;;;;;;;;5074047;28;20032;-57
2023/06/02 02:46:01;;;;;;;20.52;10.57;;;;;;;;;;5073429;28;20038;-59
2023/06/02 02:48:27;;;;;;;23.20;11.43;;;;;;;;;;5074071;28;20024;-55
2023/06/02 02:50:54;;;;;;;27.65;11.18;;;;;;;;;;5073762;28;20495;-60
2023/06/02 02:53:20;;;;;;;19.42;9.93;;;;;;;;;;5056050;28;20027;-60
2023/06/02 02:55:46;;;;;;;19.13;10.98;;;;;;;;;;5055246;28;20021;-60
2023/06/02 02:58:12;;;;;;;22.80;10.73;;;;;;;;;;5073795;28;20384;-55
2023/06/02 03:00:39;;;;;;;22.20;10.73;;;;;;;;;;5073840;28;20032;-59
2023/06/02 03:03:05;;;;;;;21.35;10.93;;;;;;;;;;5055683;28;20021;-58
2023/06/02 03:05:34;;;;;;;21.25;11.35;;;;;;;;;;5054992;28;20025;-56
2023/06/02 03:08:01;;;;;;;20.95;10.95;;;;;;;;;;5073775;28;20021;-59
2023/06/02 03:10:27;;;;;;;23.73;10.73;;;;;;;;;;5073289;28;20043;-57
2023/06/02 03:12:53;;;;;;;21.10;10.45;;;;;;;;;;5073456;28;20460;-58
2023/06/02 03:15:19;;;;;;;24.67;10.93;;;;;;;;;;5072788;28;20112;-57
2023/06/02 03:17:45;;;;;;;24.05;10.40;;;;;;;;;;5056091;28;20024;-60
2023/06/02 03:20:11;;;;;;;24.17;10.90;;;;;;;;;;5073566;28;20044;-60
2023/06/02 03:22:37;;;;;;;22.65;11.27;;;;;;;;;;5055488;28;20024;-56
2023/06/02 03:25:05;;;;;;;22.58;11.43;;;;;;;;;;5072512;28;20067;-58
2023/06/02 03:27:32;;;;;;;18.02;9.90;;;;;;;;;;5073109;28;20409;-55
2023/06/02 03:29:58;;;;;;;19.15;10.45;;;;;;;;;;5073128;28;20442;-56
2023/06/02 03:32:24;;;;;;;22.25;10.20;;;;;;;;;;5073188;28;20020;-59
2023/06/02 03:34:50;;;;;;;23.23;10.50;;;;;;;;;;5072018;28;20032;-55
2023/06/02 03:37:16;;;;;;;25.63;10.60;;;;;;;;;;5072917;28;20024;-59
2023/06/02 03:39:42;;;;;;;21.92;11.18;;;;;;;;;;5071578;28;20032;-55
2023/06/02 03:42:08;;;;;;;20.52;10.93;;;;;;;;;;5072621;28;20086;-58
2023/06/02 03:44:34;;;;;;;21.33;10.93;;;;;;;;;;5054089;28;20031;-57
2023/06/02 03:47:00;;;;;;;21.67;10.90;;;;;;;;;;5054769;28;20028;-57
2023/06/02 03:49:29;;;;;;;18.88;10.43;;;;;;;;;;5072392;28;20078;-57
2023/06/02 03:51:55;;;;;;;22.40;10.60;;;;;;;;;;5072802;28;20096;-55
2023/06/02 03:54:21;;;;;;;23.02;10.20;;;;;;;;;;5071907;28;20503;-55
2023/06/02 03:56:47;;;;;;;20.63;10.82;;;;;;;;;;5054448;28;20381;-59
2023/06/02 03:59:13;;;;;;;20.35;10.18;;;;;;;;;;5072291;28;20107;-58
2023/06/02 04:01:41;;;;;;;24.73;10.82;;;;;;;;;;5072490;28;20017;-53
2023/06/02 04:04:11;;;;;;;21.25;10.18;;;;;;;;;;5054001;28;20396;-57
2023/06/02 04:06:37;;;;;;;21.55;10.57;;;;;;;;;;5054627;28;20485;-61
2023/06/02 04:09:04;;;;;;;22.88;10.52;;;;;;;;;;5054512;28;20028;-59
2023/06/02 04:11:30;;;;;;;25.63;11.60;;;;;;;;;;5072186;28;20389;-51
2023/06/02 04:13:56;;;;;;;20.10;10.50;;;;;;;;;;5071652;28;20025;-54
2023/06/02 04:16:22;;;;;;;20.02;11.48;;;;;;;;;;5071843;28;20044;-54
2023/06/02 04:18:48;;;;;;;24.58;10.85;;;;;;;;;;5072238;28;20027;-57
2023/06/02 04:21:14;;;;;;;21.90;11.15;;;;;;;;;;5072135;28;20047;-58
2023/06/02 04:23:40;;;;;;;19.10;11.30;;;;;;;;;;5071955;28;20032;-59
2023/06/02 04:26:06;;;;;;;20.70;11.25;;;;;;;;;;5053367;28;20027;-54
2023/06/02 04:28:32;;;;;;;25.80;11.50;;;;;;;;;;5071674;28;20105;-57
2023/06/02 04:30:59;;;;;;;26.40;11.20;;;;;;;;;;5071629;28;20381;-57
2023/06/02 04:33:25;;;;;;;24.52;11.32;;;;;;;;;;5054036;28;20499;-60
2023/06/02 04:35:51;;;;;;;24.08;11.27;;;;;;;;;;5071084;28;20110;-60
2023/06/02 04:38:17;;;;;;;24.10;11.73;;;;;;;;;;5071845;28;20028;-54
2023/06/02 04:40:43;;;;;;;23.65;12.50;;;;;;;;;;5071523;28;20032;-54
2023/06/02 04:43:09;;;;;;;20.08;11.88;;;;;;;;;;5072302;28;20031;-58
2023/06/02 04:45:35;;;;;;;22.75;10.90;;;;;;;;;;5071329;28;20388;-57
2023/06/02 04:48:01;;;;;;;19.75;11.50;;;;;;;;;;5071897;28;20024;-59
2023/06/02 04:50:27;;;;;;;23.73;12.10;;;;;;;;;;5071675;28;20048;-55
2023/06/02 04:52:54;;;;;;;23.95;11.57;;;;;;;;;;5071892;28;20048;-56
2023/06/02 04:55:20;;;;;;;22.83;11.82;;;;;;;;;;5071011;28;20039;-58
2023/06/02 04:57:46;;;;;;;22.60;11.70;;;;;;;;;;5053584;28;20056;-58
2023/06/02 05:00:13;;;;;;;21.38;12.00;;;;;;;;;;5056604;28;20116;-57
2023/06/02 05:02:39;;;;;;;21.73;11.43;;;;;;;;;;5059963;28;20032;-59
2023/06/02 05:05:05;;;;;;;26.63;16.30;;;;;;;;;;5040873;28;20436;-59
2023/06/02 05:07:32;;;;;;;21.83;12.32;;;;;;;;;;5068939;28;20048;-59
2023/06/02 05:09:58;;;;;;;21.05;10.95;;;;;;;;;;5071640;28;20033;-57
2023/06/02 05:12:25;;;;;;;22.95;11.68;;;;;;;;;;5053737;28;20036;-57
2023/06/02 05:14:51;;;;;;;23.85;11.57;;;;;;;;;;5070561;28;20105;-57
2023/06/02 05:17:21;;;;;;;22.90;11.38;;;;;;;;;;5071918;28;20025;-59
2023/06/02 05:19:48;;;;;;;23.30;12.40;;;;;;;;;;5071478;28;20052;-56
2023/06/02 05:22:13;;;;;;;22.02;11.95;;;;;;;;;;5071274;28;20024;-59
2023/06/02 05:24:40;;;;;;;21.15;11.77;;;;;;;;;;5070397;28;20040;-58
2023/06/02 05:27:07;;;;;;;21.15;11.73;;;;;;;;;;5053306;28;20047;-59
2023/06/02 05:29:33;;;;;;;21.10;12.27;;;;;;;;;;5052992;28;20040;-58
2023/06/02 05:31:59;;;;;;;25.98;12.48;;;;;;;;;;5053334;28;20389;-56
2023/06/02 05:34:25;;;;;;;23.90;12.27;;;;;;;;;;5070327;28;20524;-55
2023/06/02 05:36:51;;;;;;;24.60;11.95;;;;;;;;;;5053105;28;20071;-59
2023/06/02 05:39:17;;;;;;;22.70;11.20;;;;;;;;;;5052473;28;20052;-58
2023/06/02 05:41:43;;;;;;;21.48;11.48;;;;;;;;;;5070969;28;20441;-59
2023/06/02 05:44:09;;;;;;;24.55;11.80;;;;;;;;;;5070269;28;20027;-58
2023/06/02 05:46:35;;;;;;;24.42;12.85;;;;;;;;;;5070873;28;20476;-56
2023/06/02 05:49:01;;;;;;;22.70;12.38;;;;;;;;;;5070754;28;20082;-57
2023/06/02 05:51:27;;;;;;;20.42;11.93;;;;;;;;;;5070697;28;20472;-59
2023/06/02 05:53:53;;;;;;;27.38;13.15;;;;;;;;;;5052285;28;20036;-59
2023/06/02 05:56:20;;;;;;;22.30;12.77;;;;;;;;;;5070656;28;20414;-56
2023/06/02 05:58:46;;;;;;;24.05;11.93;;;;;;;;;;5070759;28;20044;-54
2023/06/02 06:01:12;;;;;;;20.30;11.95;;;;;;;;;;5070644;28;20032;-59
2023/06/02 06:03:38;;;;;;;23.67;12.27;;;;;;;;;;5072351;28;20418;-59
2023/06/02 06:06:05;;;;;;;20.60;12.32;;;;;;;;;;5055968;28;20029;-54
2023/06/02 06:08:31;;;;;;;23.92;12.25;;;;;;;;;;5074443;28;20456;-56
2023/06/02 06:10:57;;;;;;;20.38;11.70;;;;;;;;;;5059290;28;20411;-57
2023/06/02 06:13:23;;;;;;;21.90;12.07;;;;;;;;;;5051096;28;20078;-56
2023/06/02 06:15:49;;;;;;;22.85;12.32;;;;;;;;;;5053627;28;20071;-58
2023/06/02 06:18:15;;;;;;;21.60;11.85;;;;;;;;;;5036429;28;20021;-58
2023/06/02 06:20:42;;;;;;;21.33;12.02;;;;;;;;;;5053987;28;20037;-57
2023/06/02 06:23:08;;;;;;;27.25;11.27;;;;;;;;;;5054038;28;20025;-57
2023/06/02 06:25:34;;;;;;;27.95;11.35;;;;;;;;;;5053342;28;20025;-60
2023/06/02 06:28:00;;;;;;;23.48;11.48;;;;;;;;;;5036020;28;20059;-60
2023/06/02 06:30:26;;;;;;;20.52;10.85;;;;;;;;;;5053841;28;20033;-58
2023/06/02 06:32:52;;;;;;;21.63;12.27;;;;;;;;;;5053795;28;20021;-59
2023/06/02 06:35:18;;;;;;;20.80;11.82;;;;;;;;;;5052944;28;20024;-60
2023/06/02 06:37:44;;;;;;;27.40;13.00;;;;;;;;;;5053968;28;20025;-60
2023/06/02 06:40:10;;;;;;;24.77;11.52;;;;;;;;;;5070236;22;20101;-61
2023/06/02 06:42:36;;;;;;;22.80;11.27;;;;;;;;;;5047428;28;20029;-60
2023/06/02 06:45:02;;;;;;;24.05;12.98;;;;;;;;;;5047241;28;20604;-63
2023/06/02 06:47:28;;;;;;;25.70;11.35;;;;;;;;;;5052754;28;20045;-57
2023/06/02 06:49:54;;;;;;;28.85;11.88;;;;;;;;;;5032232;28;20021;-57
2023/06/02 06:52:20;;;;;;;24.27;11.82;;;;;;;;;;5033527;28;20017;-55
2023/06/02 06:54:47;;;;;;;22.85;11.70;;;;;;;;;;5041614;28;20451;-56
2023/06/02 06:57:13;;;;;;;26.77;12.60;;;;;;;;;;5047353;28;20028;-58
2023/06/02 06:59:45;;;;;;;29.50;12.38;;;;;;;;;;5048362;28;20565;-57
2023/06/02 07:02:11;;;;;;;24.90;11.52;;;;;;;;;;5047910;28;20029;-54
2023/06/02 07:04:37;;;;;;;22.67;10.93;;;;;;;;;;5042772;28;20025;-52
2023/06/02 07:07:03;;;;;;;21.55;11.95;;;;;;;;;;5046424;28;20505;-56
2023/06/02 07:09:29;;;;;;;24.35;12.07;;;;;;;;;;5048696;28;20392;-57
2023/06/02 07:11:56;;;;;;;25.60;11.57;;;;;;;;;;5032529;28;20033;-56
2023/06/02 07:14:22;;;;;;;23.35;11.73;;;;;;;;;;5030503;28;20032;-55
2023/06/02 07:16:53;;;;;;;32.58;12.23;;;;;;;;;;5031531;28;20448;-57
2023/06/02 07:19:19;;;;;;;23.67;11.48;;;;;;;;;;5031659;28;20074;-55
2023/06/02 07:21:45;;;;;;;20.80;12.30;;;;;;;;;;5031783;28;20100;-57
2023/06/02 07:24:11;;;;;;;34.08;13.48;;;;;;;;;;5031263;28;20029;-57
2023/06/02 07:26:37;;;;;;;26.17;13.40;;;;;;;;;;5031360;28;20493;-57
2023/06/02 07:29:03;;;;;;;23.70;11.98;;;;;;;;;;5031455;28;20025;-57
2023/06/02 07:31:29;;;;;;;26.00;12.73;;;;;;;;;;5031516;28;20064;-54
2023/06/02 07:33:56;;;;;;;29.05;12.98;;;;;;;;;;5036814;28;20025;-56
2023/06/02 07:36:23;;;;;;;24.33;12.85;;;;;;;;;;5034973;28;20346;-57
2023/06/02 07:38:49;;;;;;;22.88;11.90;;;;;;;;;;5043272;28;20027;-56
2023/06/02 07:41:15;;;;;;;24.70;13.95;;;;;;;;;;5041314;28;20029;-58
2023/06/02 07:43:41;;;;;;;28.58;14.40;;;;;;;;;;5051067;28;20028;-57
2023/06/02 07:46:07;;;;;;;22.27;12.02;;;;;;;;;;5022731;28;20025;-58
2023/06/02 07:48:34;;;;;;;22.23;11.80;;;;;;;;;;5032554;28;20060;-58
2023/06/02 07:51:00;;;;;;;25.63;12.10;;;;;;;;;;5044550;28;20025;-58
2023/06/02 07:53:26;;;;;;;20.83;13.30;;;;;;;;;;5033847;28;20045;-57
2023/06/02 07:55:52;;;;;;;21.65;13.18;;;;;;;;;;5036832;28;20092;-54
2023/06/02 07:58:18;;;;;;;21.48;13.75;;;;;;;;;;5044218;28;20423;-56
2023/06/02 08:00:44;;;;;;;23.98;13.10;;;;;;;;;;5050598;28;20481;-56
2023/06/02 08:03:10;;;;;;;25.33;13.23;;;;;;;;;;5045958;28;20072;-58
2023/06/02 08:05:36;;;;;;;21.10;12.45;;;;;;;;;;5041481;28;20033;-56
2023/06/02 08:08:02;;;;;;;26.15;13.52;;;;;;;;;;5050526;28;20028;-57
2023/06/02 08:10:28;;;;;;;22.88;13.27;;;;;;;;;;5050289;28;20083;-56
2023/06/02 08:12:54;;;;;;;25.02;11.90;;;;;;;;;;5031980;28;20054;-56
2023/06/02 08:15:21;;;;;;;21.27;12.68;;;;;;;;;;5029646;28;20048;-53
2023/06/02 08:17:48;;;;;;;20.58;12.43;;;;;;;;;;5030396;28;20018;-57
2023/06/02 08:20:16;;;;;;;21.80;13.38;;;;;;;;;;5028930;28;20083;-56
2023/06/02 08:22:44;;;;;;;29.30;12.50;;;;;;;;;;5030293;28;20052;-62
2023/06/02 08:25:10;;;;;;;25.50;12.40;;;;;;;;;;5028836;28;20053;-61
2023/06/02 08:27:38;;;;;;;20.35;13.18;;;;;;;;;;5029735;28;20029;-62
2023/06/02 08:30:05;;;;;;;23.55;12.32;;;;;;;;;;5030443;28;20108;-61
2023/06/02 08:32:31;;;;;;;26.73;12.93;;;;;;;;;;5030734;28;20496;-61
2023/06/02 08:35:01;;;;;;;20.98;13.18;;;;;;;;;;5029784;28;20029;-62
2023/06/02 08:37:27;;;;;;;22.38;13.35;;;;;;;;;;5030009;28;20370;-60
2023/06/02 08:39:53;;;;;;;25.80;12.20;;;;;;;;;;5030160;28;20038;-59
2023/06/02 08:42:22;;;;;;;23.35;12.75;;;;;;;;;;5030112;28;20021;-59
2023/06/02 08:44:48;;;;;;;26.67;13.10;;;;;;;;;;5029366;28;20454;-60
2023/06/02 08:47:14;;;;;;;20.38;12.73;;;;;;;;;;5030744;28;20065;-62
2023/06/02 08:49:46;;;;;;;19.45;13.45;;;;;;;;;;5029720;28;20120;-61
2023/06/02 08:52:16;;;;;;;21.08;12.82;;;;;;;;;;5029930;28;20026;-61
2023/06/02 08:54:42;;;;;;;23.45;13.18;;;;;;;;;;5029464;28;20052;-60
2023/06/02 08:57:09;;;;;;;27.00;12.38;;;;;;;;;;5044953;28;20065;-60
2023/06/02 08:59:36;;;;;;;22.02;13.55;;;;;;;;;;5029897;28;20105;-60
2023/06/02 09:02:02;;;;;;;22.23;13.07;;;;;;;;;;5029748;28;20365;-62
2023/06/02 09:04:28;;;;;;;25.00;13.40;;;;;;;;;;5029224;28;20045;-60
2023/06/02 09:07:19;;;;;;;24.40;13.75;;;;;;;;;;5029216;28;20060;-61
2023/06/02 09:09:47;;;;;;;25.13;13.23;;;;;;;;;;5018375;28;20033;-61
2023/06/02 09:12:14;;;;;;;21.83;14.07;;;;;;;;;;5029308;28;20025;-61
2023/06/02 09:14:40;;;;;;;21.45;12.27;;;;;;;;;;5028799;28;20080;-61
2023/06/02 09:17:25;;;;;;;21.38;14.05;;;;;;;;;;5029464;28;20543;-61
2023/06/02 09:19:52;;;;;;;25.45;13.88;;;;;;;;;;5029367;28;20033;-58
2023/06/02 09:22:18;;;;;;;25.05;13.80;;;;;;;;;;5029555;28;20108;-59
2023/06/02 09:24:44;;;;;;;26.15;12.88;;;;;;;;;;5029176;28;20068;-62
2023/06/02 09:27:13;;;;;;;23.55;13.07;;;;;;;;;;5029703;28;20022;-60
2023/06/02 09:29:40;;;;;;;19.77;12.18;;;;;;;;;;5029556;28;20030;-60
2023/06/02 09:32:16;;;;;;;27.05;13.73;;;;;;;;;;5029636;28;20137;-62
2023/06/02 09:34:44;;;;;;;21.15;12.95;;;;;;;;;;5028923;28;20032;-62
2023/06/02 09:37:20;;;;;;;24.17;14.50;;;;;;;;;;5029669;28;20093;-61
2023/06/02 09:39:48;;;;;;;22.15;13.50;;;;;;;;;;5032887;28;20038;-62
2023/06/02 09:42:14;;;;;;;;;;;;;;;;;;5033804;28;20440;-58
2023/06/02 09:44:41;;;;;;;19.85;12.77;;;;;;;;;;5032451;28;19905;-61
2023/06/02 09:47:20;;;;;;;25.65;14.07;;;;;;;;;;5033067;28;20029;-61
2023/06/02 09:49:46;;;;;;;23.02;12.75;;;;;;;;;;5033327;28;20080;-62
2023/06/02 09:52:14;;;;;;;22.63;14.32;;;;;;;;;;5033371;28;20096;-62
2023/06/02 09:54:40;;;;;;;24.25;14.25;;;;;;;;;;5032420;28;20241;-62
2023/06/02 09:57:07;;;;;;;25.98;15.13;;;;;;;;;;5033122;28;20034;-62
2023/06/02 09:59:33;;;;;;;20.85;12.82;;;;;;;;;;5033134;28;20549;-59
2023/06/02 10:01:59;;;;;;;25.48;14.70;;;;;;;;;;5031867;28;20163;-61
2023/06/02 10:04:25;;;;;;;25.58;13.20;;;;;;;;;;5015105;28;20517;-59
2023/06/02 10:07:06;;;;;;;21.30;13.77;;;;;;;;;;5013271;28;20029;-61
2023/06/02 10:09:54;;;;;;;21.90;14.35;;;;;;;;;;5013164;28;20033;-60
2023/06/02 10:12:29;;;;;;;29.08;14.82;;;;;;;;;;5025084;28;20036;-56
2023/06/02 10:15:06;;;;;;;23.60;13.00;;;;;;;;;;5032464;28;20022;-60
2023/06/02 10:17:52;;;;;;;24.98;14.10;;;;;;;;;;5032938;28;20021;-61
2023/06/02 10:20:26;;;;;;;24.10;14.43;;;;;;;;;;5032489;28;20040;-61
2023/06/02 10:23:21;;;;;;;23.35;14.35;;;;;;;;;;5033173;28;20107;-60
2023/06/02 10:25:57;;;;;;;25.75;14.05;;;;;;;;;;4996137;28;20462;-59
2023/06/02 10:28:23;;;;;;;25.27;14.05;;;;;;;;;;5052714;28;20021;-61
2023/06/02 10:31:04;;;;;;;23.88;14.65;;;;;;;;;;5042632;28;20108;-59
2023/06/02 10:33:46;;;;;;;26.58;14.93;;;;;;;;;;5052341;28;20034;-58
2023/06/02 10:36:13;;;;;;;30.27;15.07;;;;;;;;;;5047996;28;20485;-62
2023/06/02 10:38:40;;;;;;;22.13;13.90;;;;;;;;;;5048475;28;20028;-61
2023/06/02 10:41:06;;;;;;;25.48;15.20;;;;;;;;;;5044024;28;20067;-60
2023/06/02 10:43:34;;;;;;;22.33;13.77;;;;;;;;;;5051851;28;20025;-60
2023/06/02 10:46:16;;;;;;;26.17;14.90;;;;;;;;;;5051491;28;20052;-63
2023/06/02 10:48:43;;;;;;;25.85;14.85;;;;;;;;;;5052180;28;20021;-62
2023/06/02 10:51:10;;;;;;;28.45;15.90;;;;;;;;;;5051825;28;20111;-59
2023/06/02 10:53:56;;;;;;;24.95;15.35;;;;;;;;;;5051543;28;20468;-59
2023/06/02 10:56:40;;;;;;;24.35;15.23;;;;;;;;;;5050270;28;20074;-58
2023/06/02 10:59:07;;;;;;;25.77;13.85;;;;;;;;;;5051568;28;20192;-59
2023/06/02 11:01:46;;;;;;;21.67;14.63;;;;;;;;;;5051833;28;20029;-62
2023/06/02 11:04:24;;;;;;;26.15;16.25;;;;;;;;;;5051032;28;20028;-61
2023/06/02 11:07:12;;;;;;;24.23;14.18;;;;;;;;;;5051777;28;20025;-63
2023/06/02 11:09:43;;;;;;;23.55;14.40;;;;;;;;;;5051210;28;20077;-62
2023/06/02 11:12:09;;;;;;;25.42;14.55;;;;;;;;;;5040841;28;20021;-61
2023/06/02 11:14:54;;;;;;;23.45;13.15;;;;;;;;;;5029035;28;20030;-61
2023/06/02 11:17:40;;;;;;;23.85;15.77;;;;;;;;;;5030553;28;20032;-61
2023/06/02 11:20:07;;;;;;;21.35;13.80;;;;;;;;;;4678145;28;10000272;-64
2023/06/02 11:22:33;;;;;;;25.10;14.55;;;;;;;;;;5027933;28;20032;-63
2023/06/02 11:25:01;;;;;;;24.75;15.07;;;;;;;;;;5027642;28;20029;-63
2023/06/02 11:27:37;;;;;;;21.77;14.50;;;;;;;;;;5027892;28;20132;-62
2023/06/02 11:30:04;;;;;;;26.08;13.65;;;;;;;;;;5025577;28;20036;-63
2023/06/02 11:32:30;;;;;;;22.00;14.23;;;;;;;;;;5028706;28;20024;-60
2023/06/02 11:35:00;;;;;;;20.98;14.00;;;;;;;;;;5026622;28;20351;-65
2023/06/02 11:37:26;;;;;;;24.45;14.93;;;;;;;;;;5027655;28;20079;-64
2023/06/02 11:39:56;;;;;;;25.30;14.95;;;;;;;;;;5026452;28;20033;-64
2023/06/02 11:42:41;;;;;;;21.88;13.77;;;;;;;;;;5029111;28;20462;-61
2023/06/02 11:45:17;;;;;;;21.88;14.50;;;;;;;;;;5030086;28;20454;-63
2023/06/02 11:47:43;;;;;;;24.00;14.38;;;;;;;;;;5030675;28;20079;-62
2023/06/02 11:50:14;;;;;;;21.95;13.90;;;;;;;;;;5030828;28;20029;-64
2023/06/02 11:52:40;;;;;;;25.40;14.70;;;;;;;;;;5031009;28;20021;-62
2023/06/02 11:55:07;;;;;;;21.83;14.82;;;;;;;;;;5030160;28;20014;-57
2023/06/02 11:57:33;;;;;;;23.80;15.50;;;;;;;;;;5043786;28;20021;-63
2023/06/02 12:00:15;;;;;;;22.40;15.40;;;;;;;;;;5030517;28;20037;-62
2023/06/02 12:02:43;;;;;;;20.92;15.65;;;;;;;;;;5030434;28;20018;-63
2023/06/02 12:05:49;;;;;;;19.23;15.05;;;;;;;;;;5029784;28;20033;-63
2023/06/02 12:08:20;;;;;;;23.17;14.65;;;;;;;;;;4969374;28;20030;-58
2023/06/02 12:10:47;;;;;;;19.85;14.95;;;;;;;;;;4967404;28;20209;-61
2023/06/02 12:13:25;;;;;;;20.55;14.20;;;;;;;;;;4990435;28;20456;-63
2023/06/02 12:15:51;;;;;;;22.05;14.65;;;;;;;;;;5009615;28;20552;-62
2023/06/02 12:18:27;;;;;;;20.75;13.55;;;;;;;;;;5010757;28;20030;-62
2023/06/02 12:20:53;;;;;;;21.83;15.02;;;;;;;;;;5011100;28;20036;-64
2023/06/02 12:23:19;;;;;;;20.35;15.07;;;;;;;;;;5010715;28;20121;-63
2023/06/02 12:25:59;;;;;;;20.13;15.30;;;;;;;;;;5009648;28;20065;-62
2023/06/02 12:28:25;;;;;;;21.00;15.27;;;;;;;;;;5027710;28;20465;-62
2023/06/02 12:30:51;;;;;;;21.30;15.23;;;;;;;;;;5029854;28;20065;-62
2023/06/02 12:33:17;;;;;;;20.63;14.90;;;;;;;;;;5030019;28;20029;-61
2023/06/02 12:35:43;;;;;;;24.02;15.00;;;;;;;;;;5029489;28;20021;-63
2023/06/02 12:38:09;;;;;;;21.85;15.13;;;;;;;;;;5045476;28;20474;-63
2023/06/02 12:40:40;;;;;;;23.42;15.90;;;;;;;;;;5043413;22;20123;-61
2023/06/02 12:43:06;;;;;;;22.63;15.50;;;;;;;;;;5031344;28;20030;-57
2023/06/02 12:45:32;;;;;;;18.55;14.25;;;;;;;;;;5030363;28;20026;-59
2023/06/02 12:47:59;;;;;;;19.20;14.27;;;;;;;;;;5030813;28;20035;-61
2023/06/02 12:50:25;;;;;;;23.30;15.23;;;;;;;;;;5019802;28;20069;-60
2023/06/02 12:52:52;;;;;;;22.10;14.88;;;;;;;;;;5051193;28;20048;-55
2023/06/02 12:55:18;;;;;;;20.77;14.18;;;;;;;;;;5065490;28;20484;-57
2023/06/02 12:57:45;;;;;;;21.95;15.55;;;;;;;;;;5050904;28;20450;-56
2023/06/02 13:00:12;;;;;;;21.23;14.27;;;;;;;;;;5051024;28;20025;-56
2023/06/02 13:02:41;;;;;;;20.88;15.32;;;;;;;;;;5050713;28;20104;-53
2023/06/02 13:05:07;;;;;;;19.77;14.20;;;;;;;;;;5065855;28;20460;-62
2023/06/02 13:07:33;;;;;;;18.77;15.02;;;;;;;;;;5051261;28;20033;-60
2023/06/02 13:09:59;;;;;;;19.52;14.73;;;;;;;;;;5050302;28;20049;-59
2023/06/02 13:12:25;;;;;;;21.42;15.50;;;;;;;;;;5067893;28;20052;-62
2023/06/02 13:14:51;;;;;;;19.73;14.77;;;;;;;;;;5072217;28;20111;-62
2023/06/02 13:17:17;;;;;;;22.92;15.65;;;;;;;;;;5057376;28;20108;-62
2023/06/02 13:19:46;;;;;;;20.88;15.63;;;;;;;;;;5057193;28;20438;-59
2023/06/02 13:22:14;;;;;;;21.55;14.30;;;;;;;;;;5072596;28;20052;-59
2023/06/02 13:24:40;;;;;;;19.48;14.27;;;;;;;;;;5056781;28;20021;-61
2023/06/02 13:27:06;;;;;;;19.60;15.02;;;;;;;;;;5072633;28;20025;-59
2023/06/02 13:29:32;;;;;;;19.08;15.23;;;;;;;;;;5057079;28;20034;-61
2023/06/02 13:31:58;;;;;;;19.35;15.00;;;;;;;;;;5057239;28;20142;-60
2023/06/02 13:34:24;;;;;;;19.40;14.52;;;;;;;;;;5056580;28;20028;-61
2023/06/02 13:36:51;;;;;;;22.25;15.15;;;;;;;;;;5057380;28;20017;-63
2023/06/02 13:39:17;;;;;;;21.48;16.40;;;;;;;;;;5056827;28;20024;-59
2023/06/02 13:41:43;;;;;;;21.27;15.30;;;;;;;;;;5057073;28;20029;-59
2023/06/02 13:44:16;;;;;;;23.60;15.52;;;;;;;;;;5056547;28;20447;-57
2023/06/02 13:46:42;;;;;;;19.83;15.20;;;;;;;;;;5072594;28;20071;-61
2023/06/02 13:49:08;;;;;;;20.70;16.85;;;;;;;;;;5057607;28;20413;-61
2023/06/02 13:51:34;;;;;;;22.10;16.67;;;;;;;;;;5057050;28;20029;-65
2023/06/02 13:54:00;;;;;;;20.33;15.13;;;;;;;;;;5056633;28;20025;-61
2023/06/02 13:56:27;;;;;;;18.67;14.43;;;;;;;;;;5057038;28;20585;-59
2023/06/02 13:58:53;;;;;;;19.50;15.10;;;;;;;;;;5057308;28;20048;-58
2023/06/02 14:01:19;;;;;;;19.65;16.27;;;;;;;;;;5057009;28;20035;-62
2023/06/02 14:03:46;;;;;;;23.63;18.23;;;;;;;;;;5072642;28;20382;-62
2023/06/02 14:06:12;;;;;;;24.40;15.23;;;;;;;;;;5072121;28;20036;-59
2023/06/02 14:08:38;;;;;;;20.58;16.35;;;;;;;;;;5057413;28;20078;-61
2023/06/02 14:11:04;;;;;;;20.50;14.77;;;;;;;;;;5056242;28;20392;-61
2023/06/02 14:13:30;;;;;;;20.38;15.40;;;;;;;;;;5072759;28;20139;-60
2023/06/02 14:15:56;;;;;;;25.08;15.55;;;;;;;;;;5056540;28;20085;-62
2023/06/02 14:18:22;;;;;;;21.05;15.15;;;;;;;;;;5057169;28;20392;-59
2023/06/02 14:20:48;;;;;;;21.73;14.77;;;;;;;;;;5056989;28;20020;-62
2023/06/02 14:23:14;;;;;;;21.25;15.10;;;;;;;;;;5056599;28;20035;-63